Terminal Aerodrome Forecast
Issued by NWS

Home | Current Version | Previous Version | Text Only | Print | Product List | Glossary On
Versions: 1 2 3 4 5 6 7 8 9 10 11 12 13 14 15 16 17 18 19 20 21 22 23 24 25 26 27 28
000
FTUS45 KGJT 310532
TAFEGE
TAF
KEGE 310532Z 3106/0106 09005KT P6SM VCSH OVC030
      TEMPO 3106/3108 VRB10G20KT -SHRA SCT030 BKN060
     FM310800 VRB03KT P6SM FEW030 BKN090
     FM311200 00000KT P6SM SCT090
     FM311800 30006KT P6SM VCTS SCT090CB BKN120
      TEMPO 3121/0101 VRB10G20KT -TSRA BKN060CB
      AMD LTD TO CLD VIS AND WIND TIL 311300=

USA.gov is the U.S. government's official web portal to all federal, state and local government web resources and services.